Time;durP1;ratioP1;P1;durP2;ratioP2;P2;SDS_P1;SDS_P2;PMS_P1;PMS_P2;Temp;Humidity;BMP_temperature;BMP_pressure;BME280_temperature;BME280_humidity;BME280_pressure;Samples;Min_cycle;Max_cycle;Signal;HPM_P1;HPM_P2
2021/10/10 00:00:23;;;;;;;16.00;8.25;;;;;;;11.83;74.23;100461.41;5053540;28;20028;-76
2021/10/10 00:02:48;;;;;;;9.98;7.97;;;;;;;11.25;74.46;100363.59;5053555;28;20096;-77
2021/10/10 00:05:13;;;;;;;11.20;8.57;;;;;;;11.83;73.76;100466.69;5053722;28;20111;-76
2021/10/10 00:07:41;;;;;;;13.77;8.38;;;;;;;11.41;73.75;100401.47;5053560;28;20065;-76
2021/10/10 00:10:11;;;;;;;13.15;7.90;;;;;;;11.82;73.74;100440.41;5053379;28;20029;-77
2021/10/10 00:12:37;;;;;;;10.88;8.20;;;;;;;11.76;73.99;100444.50;5053101;28;20540;-77
2021/10/10 00:15:04;;;;;;;11.43;7.65;;;;;;;11.90;74.05;100446.56;5042776;28;20440;-76
2021/10/10 00:17:30;;;;;;;13.40;8.30;;;;;;;11.78;73.78;100429.31;5073500;28;20056;-76
2021/10/10 00:19:55;;;;;;;11.68;7.78;;;;;;;11.60;74.10;100407.44;5073267;28;20413;-77
2021/10/10 00:22:20;;;;;;;11.52;7.97;;;;;;;11.60;73.83;100392.41;5071833;28;20478;-76
2021/10/10 00:24:46;;;;;;;12.50;8.43;;;;;;;11.96;73.81;100450.38;5073262;28;20488;-76
2021/10/10 00:27:11;;;;;;;10.52;7.65;;;;;;;11.95;74.17;100436.31;5073297;28;20021;-76
2021/10/10 00:29:37;;;;;;;15.23;7.95;;;;;;;12.03;74.27;100443.41;5073130;28;20470;-75
2021/10/10 00:32:03;;;;;;;9.98;6.95;;;;;;;11.83;73.66;100412.94;5073007;28;20035;-76
2021/10/10 00:34:28;;;;;;;10.65;7.95;;;;;;;11.97;73.50;100436.97;5073082;28;20431;-77
2021/10/10 00:36:53;;;;;;;12.50;7.30;;;;;;;12.03;74.28;100443.41;5072723;28;20036;-76
2021/10/10 00:39:19;;;;;;;12.48;7.65;;;;;;;11.89;73.64;100422.88;5072720;28;20028;-77
2021/10/10 00:41:44;;;;;;;12.00;7.80;;;;;;;12.01;74.15;100451.53;5072562;28;20043;-76
2021/10/10 00:44:11;;;;;;;9.30;6.53;;;;;;;12.05;74.84;100452.03;5072935;28;20090;-77
2021/10/10 00:46:37;;;;;;;9.68;8.13;;;;;;;12.06;74.04;100446.56;5072620;28;20028;-77
2021/10/10 00:49:03;;;;;;;10.93;8.57;;;;;;;11.76;73.81;100395.06;5072683;28;20024;-76
2021/10/10 00:51:32;;;;;;;10.40;8.25;;;;;;;12.11;73.55;100434.66;5072752;28;20054;-76
2021/10/10 00:53:58;;;;;;;10.52;6.75;;;;;;;11.76;74.20;100373.06;5071383;28;20025;-75
2021/10/10 00:56:26;;;;;;;8.77;6.38;;;;;;;12.17;74.07;100434.00;5072541;28;20507;-77
2021/10/10 00:58:52;;;;;;;9.13;6.88;;;;;;;11.83;74.35;100383.84;5072309;28;20060;-76
2021/10/10 01:01:17;;;;;;;9.32;6.72;;;;;;;11.91;73.81;100397.09;5072495;28;20063;-77
2021/10/10 01:03:43;;;;;;;11.05;6.75;;;;;;;11.94;73.65;100394.97;5072348;28;20028;-77
2021/10/10 01:06:08;;;;;;;13.10;8.15;;;;;;;12.18;73.99;100438.28;5072352;28;20024;-76
2021/10/10 01:08:34;;;;;;;8.18;6.68;;;;;;;11.96;74.53;100389.50;5072180;28;20032;-77
2021/10/10 01:10:59;;;;;;;8.98;6.93;;;;;;;12.08;73.71;100412.81;5072289;28;20040;-77
2021/10/10 01:13:25;;;;;;;8.82;6.72;;;;;;;12.07;74.54;100403.22;5072293;28;20024;-76
2021/10/10 01:15:51;;;;;;;6.72;6.03;;;;;;;12.05;74.04;100397.25;5059981;28;20045;-77
2021/10/10 01:18:24;;;;;;;7.47;6.40;;;;;;;12.20;74.10;100418.59;5052128;28;20036;-77
2021/10/10 01:20:51;;;;;;;6.88;6.20;;;;;;;12.21;73.49;100422.91;5052245;28;20053;-76
2021/10/10 01:23:18;;;;;;;8.73;7.82;;;;;;;11.65;73.46;100331.91;5051876;28;20075;-76
2021/10/10 01:25:43;;;;;;;8.75;7.88;;;;;;;12.03;74.19;100401.06;5052014;28;20452;-77
2021/10/10 01:28:09;;;;;;;8.80;7.93;;;;;;;12.16;73.68;100421.75;5051714;28;20032;-76
2021/10/10 01:30:35;;;;;;;9.43;8.25;;;;;;;12.12;74.40;100417.78;5052049;28;20033;-77
2021/10/10 01:33:01;;;;;;;11.00;9.65;;;;;;;12.12;74.25;100417.78;5051700;28;20049;-76
2021/10/10 01:35:26;;;;;;;8.77;7.88;;;;;;;12.15;74.84;100415.63;5051649;28;20025;-77
2021/10/10 01:37:52;;;;;;;10.10;7.88;;;;;;;12.15;73.75;100412.16;5051892;28;20036;-76
2021/10/10 01:40:18;;;;;;;10.10;9.07;;;;;;;12.14;74.31;100413.13;5033605;28;20025;-77
2021/10/10 01:42:43;;;;;;;10.75;9.63;;;;;;;11.96;73.87;100373.63;5051468;28;20096;-76
2021/10/10 01:45:21;;;;;;;12.93;9.02;;;;;;;12.25;73.77;100426.03;5033376;28;20098;-77
2021/10/10 01:47:46;;;;;;;10.40;9.05;;;;;;;12.24;73.84;100424.38;5051359;28;20021;-77
2021/10/10 01:50:12;;;;;;;10.65;9.60;;;;;;;11.94;74.13;100371.13;5033696;28;20027;-76
2021/10/10 01:52:46;;;;;;;10.23;9.07;;;;;;;12.27;73.82;100422.22;5033512;28;20033;-77
2021/10/10 01:55:12;;;;;;;10.88;9.73;;;;;;;12.27;74.23;100416.94;5051442;28;20052;-76
2021/10/10 01:57:38;;;;;;;10.82;9.77;;;;;;;12.28;74.38;100418.59;5051366;28;20051;-77
2021/10/10 02:00:06;;;;;;;9.73;7.13;;;;;;;12.28;74.02;100426.53;5051461;28;20031;-76
2021/10/10 02:02:31;;;;;;;10.35;9.25;;;;;;;12.30;74.28;100416.59;5051393;28;20112;-76
2021/10/10 02:04:56;;;;;;;10.57;8.85;;;;;;;11.75;73.48;100331.72;5051345;28;20480;-76
2021/10/10 02:07:22;;;;;;;11.05;9.30;;;;;;;12.29;74.04;100411.47;5051279;28;20025;-76
2021/10/10 02:09:47;;;;;;;12.45;9.80;;;;;;;12.14;73.41;100382.19;5051405;28;20033;-77
2021/10/10 02:12:13;;;;;;;10.23;8.43;;;;;;;12.34;73.42;100411.78;5051070;28;20029;-76
2021/10/10 02:14:38;;;;;;;8.88;7.97;;;;;;;11.96;73.64;100353.28;5051141;28;20032;-77
2021/10/10 02:17:04;;;;;;;8.95;7.95;;;;;;;12.31;73.41;100414.78;5051113;28;20559;-76
2021/10/10 02:19:30;;;;;;;9.60;7.63;;;;;;;12.31;73.90;100414.78;5051129;28;20425;-76
2021/10/10 02:21:56;;;;;;;10.30;8.20;;;;;;;12.23;73.93;100414.78;5050991;28;20028;-76
2021/10/10 02:24:21;;;;;;;10.07;8.77;;;;;;;11.90;73.84;100342.53;5051089;28;20025;-76
2021/10/10 02:26:47;;;;;;;12.00;8.27;;;;;;;12.21;73.70;100395.59;5051241;28;20461;-77
2021/10/10 02:29:12;;;;;;;10.38;7.75;;;;;;;11.89;73.91;100351.44;5051259;28;20028;-76
2021/10/10 02:31:42;;;;;;;8.75;7.22;;;;;;;11.92;74.13;100359.91;5051276;28;20129;-77
2021/10/10 02:34:09;;;;;;;8.55;6.97;;;;;;;12.31;73.94;100415.59;5033310;28;20033;-76
2021/10/10 02:36:34;;;;;;;7.22;6.50;;;;;;;12.30;74.17;100407.81;5050879;28;20405;-76
2021/10/10 02:38:59;;;;;;;6.93;6.28;;;;;;;11.89;74.51;100340.84;5050888;28;20040;-76
2021/10/10 02:41:25;;;;;;;8.15;6.63;;;;;;;12.05;73.89;100354.09;5050989;28;20029;-77
2021/10/10 02:43:50;;;;;;;8.65;6.18;;;;;;;12.27;74.07;100393.09;5050880;28;20029;-76
2021/10/10 02:46:15;;;;;;;6.55;5.35;;;;;;;11.89;74.12;100336.41;5050919;28;20104;-76
2021/10/10 02:48:41;;;;;;;9.38;5.60;;;;;;;12.26;74.28;100393.28;5050839;28;20029;-77
2021/10/10 02:51:06;;;;;;;6.68;5.55;;;;;;;12.09;74.07;100360.69;5051007;28;20021;-76
2021/10/10 02:53:32;;;;;;;6.88;6.28;;;;;;;12.36;73.74;100397.38;5050959;28;20440;-76
2021/10/10 02:55:57;;;;;;;11.23;6.13;;;;;;;12.24;74.13;100389.97;5050918;28;20029;-76
2021/10/10 02:58:22;;;;;;;9.55;7.00;;;;;;;12.08;74.20;100367.81;5052585;28;20029;-76
2021/10/10 03:00:48;;;;;;;8.45;6.60;;;;;;;12.34;74.02;100404.66;5054581;28;20029;-76
2021/10/10 03:03:13;;;;;;;6.70;5.97;;;;;;;12.00;74.06;100346.66;5054306;28;20094;-76
2021/10/10 03:05:39;;;;;;;6.25;5.65;;;;;;;12.25;74.07;100378.38;5054420;28;20405;-76
2021/10/10 03:08:04;;;;;;;7.80;6.10;;;;;;;12.36;74.45;100393.91;5054481;28;20017;-76
2021/10/10 03:10:29;;;;;;;8.15;5.78;;;;;;;12.36;74.44;100389.44;5054242;28;20032;-76
2021/10/10 03:12:55;;;;;;;10.23;6.15;;;;;;;12.08;73.91;100340.53;5054318;28;20029;-76
2021/10/10 03:15:20;;;;;;;8.15;6.18;;;;;;;12.32;73.92;100385.47;5048720;28;20048;-76
2021/10/10 03:17:46;;;;;;;8.73;6.10;;;;;;;11.95;74.00;100330.44;5074386;28;20033;-75
2021/10/10 03:20:12;;;;;;;6.90;5.75;;;;;;;12.34;74.56;100391.44;5073142;28;20082;-76
2021/10/10 03:22:37;;;;;;;6.82;5.25;;;;;;;12.03;74.28;100338.38;5074399;28;20035;-76
2021/10/10 03:25:03;;;;;;;7.68;6.18;;;;;;;12.38;74.26;100386.63;5074402;28;20028;-76
2021/10/10 03:27:28;;;;;;;5.90;5.30;;;;;;;12.39;73.97;100388.28;5072893;28;20032;-76
2021/10/10 03:29:54;;;;;;;4.97;4.47;;;;;;;12.36;74.73;100388.63;5074094;28;20115;-77
2021/10/10 03:32:20;;;;;;;6.07;5.47;;;;;;;12.37;74.07;100382.31;5074160;28;20100;-76
2021/10/10 03:34:45;;;;;;;6.47;5.82;;;;;;;12.13;73.83;100342.66;5072795;28;20060;-76
2021/10/10 03:37:11;;;;;;;5.80;5.18;;;;;;;12.35;74.23;100390.44;5073990;28;20118;-76
2021/10/10 03:39:36;;;;;;;8.82;5.82;;;;;;;12.28;74.48;100362.16;5074054;28;20035;-76
2021/10/10 03:42:01;;;;;;;5.70;5.03;;;;;;;12.29;74.16;100367.28;5073975;28;20028;-76
2021/10/10 03:44:27;;;;;;;6.25;5.00;;;;;;;12.34;73.96;100372.06;5072543;28;20111;-76
2021/10/10 03:46:52;;;;;;;7.95;5.68;;;;;;;12.33;74.19;100383.66;5073772;28;20027;-76
2021/10/10 03:49:18;;;;;;;6.60;5.00;;;;;;;12.06;74.46;100332.75;5073942;28;20086;-76
2021/10/10 03:51:43;;;;;;;7.10;6.30;;;;;;;12.31;74.30;100381.19;5073661;28;20031;-76
2021/10/10 03:56:50;;;;;;;8.63;7.07;;;;;;;11.78;73.74;100289.09;5073690;28;20033;-77
2021/10/10 03:59:16;;;;;;;7.80;7.00;;;;;;;12.26;73.72;100380.03;5073605;28;20485;-76
2021/10/10 04:01:42;;;;;;;6.80;6.20;;;;;;;12.07;74.32;100352.94;5073319;28;20029;-76
2021/10/10 04:04:08;;;;;;;7.97;7.18;;;;;;;12.30;74.69;100384.00;5073282;28;20414;-76
2021/10/10 04:06:33;;;;;;;9.05;6.82;;;;;;;12.27;74.41;100376.38;5073434;28;20028;-76
2021/10/10 04:08:59;;;;;;;7.15;5.65;;;;;;;12.27;74.06;100386.97;5071884;28;20032;-76
2021/10/10 04:11:24;;;;;;;8.65;6.45;;;;;;;12.24;74.89;100389.97;5073425;28;20545;-77
2021/10/10 04:13:50;;;;;;;8.35;6.72;;;;;;;12.25;74.27;100394.25;5073566;28;20028;-77
2021/10/10 04:16:15;;;;;;;8.98;6.25;;;;;;;12.05;74.88;100364.69;5057631;28;20044;-76
2021/10/10 04:18:40;;;;;;;7.93;5.97;;;;;;;12.23;74.37;100399.72;5053641;28;20031;-76
2021/10/10 04:21:06;;;;;;;9.32;5.95;;;;;;;12.24;75.21;100395.25;5053404;28;20029;-76
2021/10/10 04:23:32;;;;;;;7.22;6.43;;;;;;;11.76;74.62;100325.44;5053209;28;20043;-76
2021/10/10 04:25:58;;;;;;;7.43;6.72;;;;;;;12.26;74.66;100401.22;5053179;28;20029;-76
2021/10/10 04:28:24;;;;;;;7.47;5.85;;;;;;;12.01;74.38;100347.47;5053117;28;20036;-76
2021/10/10 04:30:49;;;;;;;8.02;5.70;;;;;;;12.27;74.85;100398.41;5052886;28;20025;-76
2021/10/10 04:33:15;;;;;;;8.07;6.63;;;;;;;12.27;74.57;100402.88;5052961;28;20486;-77
2021/10/10 04:35:41;;;;;;;7.43;6.40;;;;;;;12.07;74.39;100371.44;5052768;28;20390;-76
2021/10/10 04:38:06;;;;;;;7.75;5.97;;;;;;;12.25;74.23;100387.16;5052780;28;20028;-76
2021/10/10 04:40:32;;;;;;;8.30;6.88;;;;;;;12.14;74.43;100376.06;5053040;28;20017;-77
2021/10/10 04:42:57;;;;;;;9.85;6.07;;;;;;;12.31;74.64;100396.25;5052629;28;20490;-76
2021/10/10 04:45:22;;;;;;;7.88;6.78;;;;;;;12.29;74.51;100395.56;5052647;28;20025;-76
2021/10/10 04:47:48;;;;;;;7.00;6.30;;;;;;;12.26;75.06;100380.84;5052760;28;20013;-76
2021/10/10 04:50:13;;;;;;;7.22;5.88;;;;;;;12.04;74.27;100360.38;5052734;28;20051;-76
2021/10/10 04:52:39;;;;;;;6.95;5.90;;;;;;;11.86;74.73;100331.41;5052300;28;20087;-76
2021/10/10 04:55:05;;;;;;;7.50;6.10;;;;;;;12.18;74.70;100380.88;5052350;28;20520;-76
2021/10/10 04:57:31;;;;;;;8.90;7.22;;;;;;;12.08;74.65;100353.75;5052557;28;20025;-76
2021/10/10 04:59:56;;;;;;;16.83;7.90;;;;;;;12.32;75.00;100387.28;5052383;28;20054;-76
2021/10/10 05:02:23;;;;;;;10.70;9.40;;;;;;;11.83;74.55;100310.59;5034635;28;20029;-76
2021/10/10 05:04:49;;;;;;;9.82;7.82;;;;;;;12.11;74.11;100357.88;5052455;28;20040;-76
2021/10/10 05:07:16;;;;;;;11.05;9.15;;;;;;;12.02;74.38;100352.59;5052271;28;20096;-76
2021/10/10 05:09:42;;;;;;;10.77;7.50;;;;;;;11.90;74.47;100345.19;5052201;28;20106;-77
2021/10/10 05:12:08;;;;;;;8.48;6.97;;;;;;;12.26;74.70;100396.75;5052212;28;20497;-76
2021/10/10 05:14:33;;;;;;;11.02;7.90;;;;;;;11.93;74.25;100361.53;5052151;28;20025;-76
2021/10/10 05:16:58;;;;;;;12.73;8.13;;;;;;;12.17;74.35;100395.09;5052162;28;20383;-77
2021/10/10 05:19:25;;;;;;;10.90;8.15;;;;;;;12.33;74.36;100412.78;5052074;28;20031;-76
2021/10/10 05:21:50;;;;;;;18.58;9.68;;;;;;;12.14;74.18;100376.91;5051499;28;20085;-76
2021/10/10 05:24:16;;;;;;;13.95;8.90;;;;;;;12.25;74.10;100402.22;5052092;28;20112;-80
2021/10/10 05:26:41;;;;;;;11.82;9.57;;;;;;;11.99;74.00;100362.69;5051997;28;20025;-81
2021/10/10 05:29:07;;;;;;;15.13;10.55;;;;;;;11.80;74.16;100342.66;5051910;28;20086;-80
2021/10/10 05:31:32;;;;;;;11.40;8.68;;;;;;;11.97;74.14;100396.44;5051931;28;20025;-80
2021/10/10 05:33:58;;;;;;;11.32;9.25;;;;;;;11.85;74.28;100360.69;5051865;28;20029;-80
2021/10/10 05:36:23;;;;;;;13.25;9.93;;;;;;;11.95;74.32;100377.25;5051746;28;20029;-80
2021/10/10 05:38:49;;;;;;;15.10;10.18;;;;;;;11.78;74.20;100349.94;5033851;28;20116;-79
2021/10/10 05:41:14;;;;;;;13.73;9.45;;;;;;;11.73;74.37;100333.72;5051955;28;20083;-80
2021/10/10 05:43:40;;;;;;;13.55;9.57;;;;;;;12.18;73.44;100402.06;5051740;28;20029;-80
2021/10/10 05:46:06;;;;;;;9.70;8.65;;;;;;;12.27;74.20;100414.28;5051553;28;20474;-80
2021/10/10 05:48:31;;;;;;;16.73;11.35;;;;;;;12.26;73.78;100411.81;5051249;28;20491;-81
2021/10/10 05:50:56;;;;;;;13.38;9.80;;;;;;;12.05;74.13;100388.50;5051455;28;20099;-81
2021/10/10 05:53:23;;;;;;;14.80;11.13;;;;;;;12.26;73.83;100428.50;5051475;28;20452;-80
2021/10/10 05:55:48;;;;;;;13.63;10.05;;;;;;;12.34;73.58;100420.56;5051341;28;20025;-80
2021/10/10 05:58:20;;;;;;;13.40;11.07;;;;;;;12.08;74.09;100383.69;5051307;28;20036;-80
2021/10/10 06:00:46;;;;;;;15.18;11.70;;;;;;;12.26;73.83;100415.28;5051299;28;20017;-80
2021/10/10 06:03:12;;;;;;;15.15;10.77;;;;;;;12.36;73.65;100426.50;5051597;28;20563;-80
2021/10/10 06:05:39;;;;;;;21.02;12.38;;;;;;;12.10;73.66;100383.53;5051402;28;20481;-79
2021/10/10 06:08:05;;;;;;;18.33;13.40;;;;;;;12.32;74.02;100422.56;5051471;28;20021;-80
2021/10/10 06:10:31;;;;;;;17.45;13.02;;;;;;;12.30;73.91;100432.47;5051394;28;20463;-80
2021/10/10 06:12:57;;;;;;;16.70;13.68;;;;;;;12.34;73.80;100425.03;5051258;28;20024;-80
2021/10/10 06:15:24;;;;;;;21.55;16.63;;;;;;;12.03;73.40;100398.44;5046147;28;20052;-80
2021/10/10 06:17:49;;;;;;;20.88;16.30;;;;;;;12.26;73.09;100425.03;5069930;28;20039;-80
2021/10/10 06:20:14;;;;;;;19.40;14.43;;;;;;;12.23;73.04;100422.72;5071132;28;20032;-80
2021/10/10 06:22:40;;;;;;;18.20;13.40;;;;;;;12.16;73.27;100438.44;5071144;28;20598;-79
2021/10/10 06:25:06;;;;;;;23.38;13.73;;;;;;;12.15;73.01;100434.16;5071143;28;20389;-76
2021/10/10 06:27:31;;;;;;;19.75;13.85;;;;;;;12.22;73.37;100436.97;5071042;28;20028;-76
2021/10/10 06:29:57;;;;;;;19.50;12.75;;;;;;;12.03;73.20;100412.50;5071082;28;20059;-76
2021/10/10 06:32:22;;;;;;;21.95;13.02;;;;;;;12.07;73.32;100416.44;5073188;28;20028;-76
2021/10/10 06:34:48;;;;;;;18.17;11.23;;;;;;;11.78;73.52;100377.22;5075311;28;20081;-76
2021/10/10 06:37:13;;;;;;;16.45;11.02;;;;;;;11.86;73.75;100386.16;5075132;28;20412;-76
2021/10/10 06:39:38;;;;;;;14.55;9.93;;;;;;;12.13;73.31;100427.38;5075135;28;20507;-76
2021/10/10 06:42:05;;;;;;;18.42;10.48;;;;;;;11.85;73.52;100371.28;5075082;28;20031;-76
2021/10/10 06:44:31;;;;;;;17.08;9.90;;;;;;;12.02;72.76;100404.72;5073748;28;20093;-76
2021/10/10 06:46:57;;;;;;;20.23;10.57;;;;;;;12.16;73.22;100438.44;5074821;28;20499;-76
2021/10/10 06:49:23;;;;;;;21.55;12.13;;;;;;;12.15;73.76;100430.69;5074696;28;20028;-76
2021/10/10 06:51:48;;;;;;;22.63;13.75;;;;;;;12.19;73.08;100429.34;5073478;28;20029;-76
2021/10/10 06:54:14;;;;;;;23.15;13.32;;;;;;;12.22;73.15;100423.72;5074666;28;20111;-76
2021/10/10 06:56:39;;;;;;;25.73;13.45;;;;;;;11.91;73.05;100365.34;5074844;28;20027;-76
2021/10/10 06:59:05;;;;;;;18.92;11.13;;;;;;;11.80;73.12;100355.91;5074795;28;20111;-76
2021/10/10 07:01:32;;;;;;;19.88;10.90;;;;;;;11.92;72.83;100377.59;5074767;28;20386;-76
2021/10/10 07:03:57;;;;;;;15.30;10.43;;;;;;;11.94;72.85;100381.72;5074628;28;20028;-76
2021/10/10 07:06:23;;;;;;;14.90;9.57;;;;;;;11.95;73.17;100401.06;5074747;28;20036;-76
2021/10/10 07:08:48;;;;;;;20.45;11.18;;;;;;;11.84;72.82;100374.91;5074562;28;20032;-76
2021/10/10 07:11:14;;;;;;;22.80;13.50;;;;;;;12.12;73.39;100415.13;5074487;28;20032;-76
2021/10/10 07:13:40;;;;;;;19.02;11.38;;;;;;;11.90;73.17;100382.22;5074784;28;20478;-76
2021/10/10 07:16:05;;;;;;;24.88;12.20;;;;;;;11.80;73.22;100376.25;5060231;28;20053;-76
2021/10/10 07:18:41;;;;;;;18.80;11.20;;;;;;;12.11;73.47;100418.78;5054410;28;20025;-76
2021/10/10 07:26:19;;;;;;;19.42;11.95;;;;;;;12.19;73.16;100424.06;5054467;28;20107;-76
2021/10/10 07:28:45;;;;;;;18.60;11.40;;;;;;;12.19;73.48;100424.88;5054268;28;20104;-76
2021/10/10 07:31:10;;;;;;;19.15;10.90;;;;;;;11.97;73.45;100384.03;5054138;28;20466;-76
2021/10/10 07:33:36;;;;;;;18.80;10.52;;;;;;;12.20;72.75;100428.34;5054133;28;20025;-77
2021/10/10 07:36:02;;;;;;;23.95;11.43;;;;;;;12.23;73.59;100428.84;5053933;28;20098;-76
2021/10/10 07:38:27;;;;;;;17.08;10.38;;;;;;;12.26;73.15;100431.16;5053943;28;20032;-76
2021/10/10 07:40:53;;;;;;;20.42;12.23;;;;;;;11.92;72.92;100372.28;5054090;28;20025;-76
2021/10/10 07:43:20;;;;;;;24.92;13.07;;;;;;;12.02;73.16;100394.94;5053288;28;20460;-77
2021/10/10 07:45:47;;;;;;;18.50;11.85;;;;;;;12.09;73.01;100400.41;5053929;28;20512;-76
2021/10/10 07:48:12;;;;;;;26.35;17.98;;;;;;;12.05;72.66;100393.78;5054011;28;20036;-76
2021/10/10 07:50:38;;;;;;;30.63;20.00;;;;;;;12.03;73.29;100388.66;5053757;28;20025;-76
2021/10/10 07:53:04;;;;;;;21.73;17.55;;;;;;;12.13;73.28;100408.84;5053811;28;20146;-76
2021/10/10 07:55:31;;;;;;;24.45;18.48;;;;;;;12.24;73.42;100427.84;5053484;28;20028;-76
2021/10/10 07:57:57;;;;;;;26.88;18.60;;;;;;;12.19;73.04;100413.47;5053623;28;20108;-76
2021/10/10 08:00:23;;;;;;;28.95;18.85;;;;;;;12.27;73.35;100437.28;5053431;28;20025;-76
2021/10/10 08:02:50;;;;;;;27.95;16.13;;;;;;;12.26;73.07;100425.88;5035813;28;20028;-76
2021/10/10 08:05:16;;;;;;;19.58;11.88;;;;;;;12.12;73.69;100401.88;5035764;28;20025;-76
2021/10/10 08:07:42;;;;;;;20.52;11.65;;;;;;;12.29;72.96;100427.34;5053429;28;20179;-76
2021/10/10 08:10:07;;;;;;;27.00;12.82;;;;;;;12.32;73.55;100425.19;5053369;28;20536;-76
2021/10/10 08:12:33;;;;;;;20.27;12.45;;;;;;;11.97;73.38;100367.34;5053154;28;20089;-76
2021/10/10 08:14:58;;;;;;;25.00;12.38;;;;;;;12.23;73.02;100409.50;5052922;28;20049;-76
2021/10/10 08:17:24;;;;;;;26.02;13.10;;;;;;;12.31;72.81;100422.72;5035177;28;20029;-77
2021/10/10 08:19:49;;;;;;;20.55;12.00;;;;;;;12.21;73.30;100404.38;5053115;28;20094;-76
2021/10/10 08:22:16;;;;;;;16.17;11.52;;;;;;;12.35;73.13;100429.34;5053353;28;20099;-76
2021/10/10 08:24:41;;;;;;;20.30;11.45;;;;;;;12.28;73.25;100415.09;5053155;28;20028;-76
2021/10/10 08:27:07;;;;;;;24.80;12.85;;;;;;;12.32;73.47;100419.91;5052951;28;20021;-76
2021/10/10 08:29:32;;;;;;;18.58;11.73;;;;;;;11.94;73.34;100363.19;5052726;28;20413;-77
2021/10/10 08:31:58;;;;;;;22.40;12.52;;;;;;;12.06;72.83;100376.91;5053058;28;20028;-76
2021/10/10 08:34:23;;;;;;;24.27;11.82;;;;;;;12.19;73.39;100395.75;5053187;28;20021;-76
2021/10/10 08:36:48;;;;;;;18.33;12.32;;;;;;;12.38;72.82;100423.69;5052879;28;20025;-76
2021/10/10 08:39:14;;;;;;;24.58;13.43;;;;;;;12.37;73.56;100414.94;5052888;28;20421;-76
2021/10/10 08:41:44;;;;;;;20.02;12.07;;;;;;;12.39;73.20;100412.94;5052917;28;20028;-76
2021/10/10 08:44:16;;;;;;;18.67;11.02;;;;;;;12.02;73.61;100343.84;5052983;28;20024;-77
2021/10/10 08:46:43;;;;;;;24.02;12.98;;;;;;;12.30;73.14;100402.53;5052651;28;20025;-76
2021/10/10 08:49:08;;;;;;;26.77;14.85;;;;;;;12.33;73.44;100407.50;5052544;28;20107;-76
2021/10/10 08:51:35;;;;;;;23.00;12.73;;;;;;;12.34;73.66;100409.13;5052700;28;20112;-76
2021/10/10 08:54:01;;;;;;;28.85;15.20;;;;;;;12.34;73.79;100406.50;5052525;28;20044;-76
2021/10/10 08:56:26;;;;;;;26.23;14.95;;;;;;;12.00;73.84;100365.19;5051435;28;20481;-75
2021/10/10 08:58:52;;;;;;;20.52;13.32;;;;;;;12.33;73.54;100410.97;5052288;28;20529;-74
2021/10/10 09:01:27;;;;;;;27.13;13.38;;;;;;;12.19;73.64;100379.88;5034450;28;20094;-76
2021/10/10 09:03:56;;;;;;;22.42;13.27;;;;;;;12.33;73.56;100392.44;5052257;28;20486;-76
2021/10/10 09:06:22;;;;;;;22.17;13.20;;;;;;;12.21;73.33;100383.19;5052284;28;20021;-76
2021/10/10 09:08:47;;;;;;;24.75;13.32;;;;;;;12.16;73.64;100368.78;5052261;28;20040;-77
2021/10/10 09:11:13;;;;;;;29.58;15.23;;;;;;;12.45;73.03;100408.78;5052028;28;20024;-76
2021/10/10 09:13:41;;;;;;;23.42;14.20;;;;;;;12.20;73.34;100370.94;5034115;28;20086;-76
2021/10/10 09:16:08;;;;;;;25.25;14.65;;;;;;;12.12;73.32;100351.59;5051924;28;20050;-76
2021/10/10 09:18:39;;;;;;;30.65;16.23;;;;;;;12.46;73.07;100406.97;5052137;28;20036;-76
2021/10/10 09:21:13;;;;;;;32.22;16.05;;;;;;;12.47;73.06;100405.97;5052272;28;20021;-76
2021/10/10 09:23:39;;;;;;;29.27;17.40;;;;;;;12.06;73.04;100332.75;5051941;28;20083;-76
2021/10/10 09:26:05;;;;;;;28.08;16.23;;;;;;;12.59;72.90;100405.44;5051984;28;20020;-76
2021/10/10 09:28:34;;;;;;;25.50;16.45;;;;;;;12.62;73.06;100409.56;5052055;28;20071;-76
2021/10/10 09:31:05;;;;;;;25.85;16.90;;;;;;;12.62;72.76;100406.91;5052049;28;20033;-76
2021/10/10 09:33:40;;;;;;;31.77;17.55;;;;;;;12.67;72.88;100410.75;5051674;28;20036;-76
2021/10/10 09:36:15;;;;;;;26.55;15.65;;;;;;;12.68;72.68;100404.44;5051678;28;20037;-76
2021/10/10 09:38:46;;;;;;;26.55;14.70;;;;;;;12.65;72.95;100402.13;5051915;28;20031;-76
2021/10/10 09:44:09;;;;;;;32.80;16.33;;;;;;;12.52;72.81;100377.97;5051876;28;20477;-76
2021/10/10 09:46:38;;;;;;;29.10;16.77;;;;;;;12.67;72.62;100408.09;5051678;28;20417;-72
2021/10/10 09:49:24;;;;;;;24.58;15.13;;;;;;;12.69;72.69;100414.06;5051621;28;20528;-76
2021/10/10 09:51:50;;;;;;;27.48;14.23;;;;;;;12.71;73.10;100412.06;5051676;28;20025;-76
2021/10/10 09:54:16;;;;;;;31.00;13.75;;;;;;;12.45;72.81;100371.72;5040798;28;20449;-76
2021/10/10 09:57:02;;;;;;;22.58;12.57;;;;;;;12.72;72.92;100408.41;5031434;28;20034;-76
2021/10/10 09:59:28;;;;;;;22.17;13.25;;;;;;;12.70;72.95;100402.47;5031213;28;20033;-76
2021/10/10 10:01:53;;;;;;;26.35;13.93;;;;;;;12.63;72.85;100392.69;5031438;28;20025;-76
2021/10/10 10:04:18;;;;;;;25.27;11.80;;;;;;;12.78;72.89;100409.56;5031510;28;20030;-76
2021/10/10 10:06:44;;;;;;;19.88;11.00;;;;;;;12.64;73.27;100376.66;5030896;28;20025;-76
2021/10/10 10:09:11;;;;;;;24.48;11.65;;;;;;;12.80;73.24;100402.25;5013502;28;20025;-77
2021/10/10 10:11:41;;;;;;;22.20;12.15;;;;;;;12.79;72.97;100395.31;5031448;28;20040;-76
2021/10/10 10:14:14;;;;;;;21.58;11.32;;;;;;;12.77;72.55;100388.53;5031338;28;20026;-76
2021/10/10 10:16:42;;;;;;;25.67;12.90;;;;;;;12.88;72.39;100401.41;5031036;28;20071;-76
2021/10/10 10:19:16;;;;;;;19.67;11.20;;;;;;;12.89;72.77;100401.22;5014046;28;20053;-76
2021/10/10 10:21:41;;;;;;;21.55;12.13;;;;;;;12.91;72.36;100398.41;5031128;28;20032;-76
2021/10/10 10:24:10;;;;;;;33.10;13.80;;;;;;;12.90;72.47;100397.56;5031091;28;20038;-76
2021/10/10 10:26:37;;;;;;;29.48;13.13;;;;;;;12.94;72.66;100404.19;5031289;28;20049;-76
2021/10/10 10:29:06;;;;;;;23.50;12.57;;;;;;;12.60;71.99;100337.38;5031002;28;20029;-76
2021/10/10 10:31:35;;;;;;;26.90;11.90;;;;;;;12.91;72.05;100399.22;5031125;28;20510;-76
2021/10/10 10:34:25;;;;;;;23.42;10.95;;;;;;;13.01;72.16;100397.19;5031120;28;20025;-76
2021/10/10 10:37:04;;;;;;;23.08;11.40;;;;;;;13.07;72.02;100390.38;5030888;28;20509;-76
2021/10/10 10:39:37;;;;;;;26.33;12.32;;;;;;;12.87;72.20;100363.47;5013243;28;20036;-76
2021/10/10 10:42:05;;;;;;;30.45;12.65;;;;;;;13.08;72.10;100385.91;5031030;28;20405;-76
2021/10/10 10:44:44;;;;;;;29.38;13.25;;;;;;;13.14;72.09;100387.84;5013346;28;20025;-76
2021/10/10 10:47:18;;;;;;;22.65;12.25;;;;;;;13.11;71.76;100391.69;5030957;28;20475;-76
2021/10/10 10:49:56;;;;;;;25.85;11.88;;;;;;;13.10;71.77;100381.25;5031099;28;20022;-76
2021/10/10 10:52:33;;;;;;;22.95;11.13;;;;;;;13.11;72.20;100386.38;5030963;28;20029;-76
2021/10/10 10:55:05;;;;;;;29.92;12.70;;;;;;;13.12;72.18;100389.84;5030934;28;20414;-76
2021/10/10 10:57:41;;;;;;;27.35;10.95;;;;;;;13.12;71.87;100385.38;5030901;28;20042;-75
2021/10/10 11:00:08;;;;;;;18.40;10.27;;;;;;;13.14;72.40;100383.38;5030831;28;20037;-76
2021/10/10 11:02:58;;;;;;;26.70;12.63;;;;;;;13.12;71.74;100385.38;5030696;28;20028;-76
2021/10/10 11:05:52;;;;;;;27.15;12.43;;;;;;;13.10;72.16;100381.25;5030806;28;20022;-76
2021/10/10 11:08:17;;;;;;;25.35;12.77;;;;;;;13.12;72.16;100369.47;5030755;28;20026;-76
2021/10/10 11:11:01;;;;;;;25.67;11.18;;;;;;;13.08;72.41;100381.41;5030800;28;20025;-76
2021/10/10 11:13:28;;;;;;;21.17;11.80;;;;;;;13.10;72.22;100379.41;5030764;28;20510;-77
2021/10/10 11:15:57;;;;;;;30.25;13.02;;;;;;;13.13;72.02;100384.38;5030468;28;20403;-76
2021/10/10 11:18:27;;;;;;;19.92;10.35;;;;;;;13.09;72.08;100383.06;5030789;28;20502;-76
2021/10/10 11:20:59;;;;;;;28.77;11.93;;;;;;;13.09;71.85;100388.38;5034303;28;20044;-76
2021/10/10 11:23:24;;;;;;;;;;;;;;;12.97;72.99;100387.09;5034653;28;20072;-77
2021/10/10 11:25:51;;;;;;;23.65;11.68;;;;;;;12.71;72.08;100326.44;5034449;28;19909;-76